createdAt,value
2018-10-02T00:01:12.571Z,76.70
2018-10-02T00:03:41.854Z,76.30
2018-10-02T00:06:11.621Z,76.40
2018-10-02T00:08:40.780Z,76.20
2018-10-02T00:11:16.462Z,76.20
2018-10-02T00:14:51.944Z,76.00
2018-10-02T00:17:20.985Z,76.20
2018-10-02T00:19:50.388Z,76.20
2018-10-02T00:22:20.149Z,75.70
2018-10-02T00:24:50.031Z,76.00
2018-10-02T00:27:19.561Z,75.80
2018-10-02T00:29:49.087Z,76.30
2018-10-02T00:32:18.851Z,76.20
2018-10-02T00:34:48.361Z,76.20
2018-10-02T00:37:18.363Z,76.40
2018-10-02T00:39:47.645Z,76.20
2018-10-02T00:42:16.807Z,76.60
2018-10-02T00:44:46.448Z,76.00
2018-10-02T00:47:15.492Z,75.90
2018-10-02T00:49:44.893Z,76.10
2018-10-02T00:52:14.534Z,76.00
2018-10-02T00:54:43.939Z,76.20
2018-10-02T00:57:13.220Z,76.10
2018-10-02T00:59:42.861Z,75.80
2018-10-02T01:02:12.625Z,75.70
2018-10-02T01:04:42.505Z,75.40
2018-10-02T01:07:11.907Z,75.40
2018-10-02T01:09:41.429Z,75.40
2018-10-02T01:12:10.833Z,75.30
2018-10-02T01:14:40.475Z,75.50
2018-10-02T01:17:09.997Z,75.60
2018-10-02T01:19:43.382Z,75.20
2018-10-02T01:22:13.001Z,75.60
2018-10-02T01:24:43.001Z,75.10
2018-10-02T01:27:12.286Z,75.30
2018-10-02T01:29:41.926Z,75.40
2018-10-02T01:32:11.690Z,75.20
2018-10-02T01:34:40.850Z,75.20
2018-10-02T01:37:10.885Z,75.90
2018-10-02T01:39:40.257Z,75.10
2018-10-02T01:42:09.657Z,75.60
2018-10-02T01:44:40.859Z,75.60
2018-10-02T01:47:11.701Z,75.70
2018-10-02T01:49:41.343Z,75.60
2018-10-02T01:52:10.626Z,76.00
2018-10-02T01:54:39.787Z,76.30
2018-10-02T01:57:09.075Z,76.90
2018-10-02T01:59:39.091Z,76.90
2018-10-02T02:02:09.436Z,76.40
2018-10-02T02:04:38.717Z,76.40
2018-10-02T02:07:08.359Z,76.20
2018-10-02T02:09:37.640Z,76.30
2018-10-02T02:12:06.802Z,76.80
2018-10-02T02:14:36.684Z,77.10
2018-10-02T02:17:06.446Z,77.10
2018-10-02T02:19:36.090Z,77.50
2018-10-02T02:22:05.371Z,78.40
2018-10-02T02:24:35.257Z,77.90
2018-10-02T02:27:05.255Z,78.00
2018-10-02T02:29:34.657Z,78.30
2018-10-02T02:32:04.419Z,78.50
2018-10-02T02:34:33.823Z,78.90
2018-10-02T02:37:03.223Z,78.90
2018-10-02T02:39:33.105Z,78.90
2018-10-02T02:42:02.268Z,78.80
2018-10-02T02:44:31.548Z,78.60
2018-10-02T02:47:06.471Z,78.80
2018-10-02T02:49:41.277Z,78.80
2018-10-02T02:52:11.035Z,78.80
2018-10-02T02:54:39.958Z,78.70
2018-10-02T02:57:09.720Z,78.50
2018-10-02T02:59:39.722Z,78.20
2018-10-02T03:02:09.367Z,79.10
2018-10-02T03:04:38.647Z,78.50
2018-10-02T03:07:08.048Z,78.30
2018-10-02T03:09:37.451Z,78.50
2018-10-02T03:12:06.737Z,78.70
2018-10-02T03:14:36.494Z,78.70
2018-10-02T03:17:06.017Z,78.40
2018-10-02T03:19:35.298Z,78.60
2018-10-02T03:22:04.701Z,78.50
2018-10-02T03:24:38.904Z,78.10
2018-10-02T03:27:08.425Z,77.90
2018-10-02T03:29:37.951Z,78.10
2018-10-02T03:32:07.350Z,78.30
2018-10-02T03:34:36.631Z,78.40
2018-10-02T03:37:06.153Z,78.70
2018-10-02T03:39:35.676Z,78.60
2018-10-02T03:42:04.718Z,78.30
2018-10-02T03:44:34.302Z,78.30
2018-10-02T03:47:03.647Z,78.30
2018-10-02T03:49:34.484Z,77.60
2018-10-02T03:52:04.247Z,78.10
2018-10-02T03:54:34.488Z,78.30
2018-10-02T03:57:03.651Z,78.10
2018-10-02T03:59:33.294Z,78.00
2018-10-02T04:02:02.815Z,78.00
2018-10-02T04:04:32.696Z,78.20
2018-10-02T04:07:02.579Z,78.10
2018-10-02T04:09:32.460Z,78.60
2018-10-02T04:12:02.345Z,78.90
2018-10-02T04:14:32.225Z,78.90
2018-10-02T04:17:01.268Z,78.90
2018-10-02T04:19:31.510Z,78.50
2018-10-02T04:22:00.556Z,79.00
2018-10-02T04:24:29.954Z,79.00
2018-10-02T04:26:59.600Z,79.80
2018-10-02T04:29:28.877Z,79.00
2018-10-02T04:31:58.400Z,79.10
2018-10-02T04:34:27.561Z,79.10
2018-10-02T04:36:57.325Z,79.10
2018-10-02T04:39:27.423Z,79.20
2018-10-02T04:41:57.208Z,79.00
2018-10-02T04:44:26.374Z,79.10
2018-10-02T04:46:55.810Z,79.10
2018-10-02T04:49:25.295Z,79.20
2018-10-02T04:51:55.056Z,78.90
2018-10-02T04:54:24.221Z,78.70
2018-10-02T04:56:53.982Z,78.50
2018-10-02T04:59:23.384Z,78.80
2018-10-02T05:01:58.615Z,78.80
2018-10-02T05:04:28.188Z,78.90
2018-10-02T05:06:57.592Z,79.10
2018-10-02T05:09:27.114Z,79.20
2018-10-02T05:11:56.274Z,79.40
2018-10-02T05:14:26.035Z,79.50
2018-10-02T05:16:55.557Z,79.40
2018-10-02T05:19:25.680Z,79.40
2018-10-02T05:21:54.962Z,79.50
2018-10-02T05:24:24.605Z,79.60
2018-10-02T05:26:54.246Z,79.70
2018-10-02T05:29:29.168Z,79.50
2018-10-02T05:31:59.170Z,79.50
2018-10-02T05:34:29.414Z,79.40
2018-10-02T05:37:01.984Z,79.80
2018-10-02T05:39:32.537Z,79.50
2018-10-02T05:42:02.809Z,79.50
2018-10-02T05:44:32.422Z,79.60
2018-10-02T05:47:01.585Z,79.50
2018-10-02T05:49:30.865Z,79.60
2018-10-02T05:52:02.189Z,79.70
2018-10-02T05:54:35.564Z,79.80
2018-10-02T05:57:06.631Z,79.40
2018-10-02T05:59:36.166Z,79.30
2018-10-02T06:02:07.868Z,79.30
2018-10-02T06:04:38.441Z,79.30
2018-10-02T06:07:08.441Z,79.50
2018-10-02T06:09:37.965Z,79.40
2018-10-02T06:12:07.844Z,79.50
2018-10-02T06:14:37.367Z,79.70
2018-10-02T06:17:06.426Z,79.80
2018-10-02T06:19:36.052Z,79.70
2018-10-02T06:22:05.933Z,79.90
2018-10-02T06:24:36.562Z,80.20
2018-10-02T06:27:05.820Z,79.90
2018-10-02T06:29:35.820Z,79.70
2018-10-02T06:32:05.706Z,80.10
2018-10-02T06:34:36.191Z,80.00
2018-10-02T06:37:06.186Z,80.20
2018-10-02T06:39:36.429Z,80.10
2018-10-02T06:42:08.829Z,79.80
2018-10-02T06:44:45.249Z,78.80
2018-10-02T06:47:28.912Z,79.50
2018-10-02T06:50:10.528Z,79.50
2018-10-02T06:52:52.279Z,79.60
2018-10-02T06:55:25.887Z,79.60
2018-10-02T06:58:08.872Z,79.50
2018-10-02T07:00:52.060Z,79.10
2018-10-02T07:03:31.168Z,79.50
2018-10-02T07:06:02.732Z,79.60
2018-10-02T07:08:32.863Z,79.70
2018-10-02T07:11:14.428Z,79.20
2018-10-02T07:13:57.230Z,79.80
2018-10-02T07:16:39.001Z,79.40
2018-10-02T07:19:09.462Z,79.40
2018-10-02T07:21:39.345Z,79.10
2018-10-02T07:24:10.067Z,79.40
2018-10-02T07:26:38.805Z,79.40
2018-10-02T07:29:07.433Z,79.50
2018-10-02T07:31:36.353Z,79.20
2018-10-02T07:34:05.155Z,79.20
2018-10-02T07:36:33.866Z,79.20
2018-10-02T07:39:02.646Z,79.20
2018-10-02T07:41:31.514Z,79.10
2018-10-02T07:44:00.126Z,79.30
2018-10-02T07:46:28.928Z,78.90
2018-10-02T07:48:58.207Z,78.70
2018-10-02T07:51:26.770Z,78.20
2018-10-02T07:53:55.493Z,77.80
2018-10-02T07:56:24.306Z,77.30
2018-10-02T07:58:52.937Z,77.30
2018-10-02T08:01:21.625Z,77.00
2018-10-02T08:03:50.423Z,76.50
2018-10-02T08:06:19.105Z,76.10
2018-10-02T08:08:47.792Z,75.50
2018-10-02T08:11:16.589Z,75.60
2018-10-02T08:13:45.271Z,75.20
2018-10-02T08:16:13.956Z,74.60
2018-10-02T08:18:42.875Z,75.10
2018-10-02T08:21:11.556Z,74.30
2018-10-02T08:23:40.398Z,74.20
2018-10-02T08:26:09.040Z,73.20
2018-10-02T08:28:37.738Z,72.40
2018-10-02T08:31:06.404Z,73.00
2018-10-02T08:33:35.208Z,73.40
2018-10-02T08:36:03.924Z,73.20
2018-10-02T08:38:44.757Z,72.70
2018-10-02T08:41:16.854Z,73.20
2018-10-02T08:43:55.777Z,73.10
2018-10-02T08:46:25.500Z,71.80
2018-10-02T08:48:56.581Z,71.90
2018-10-02T08:51:27.061Z,71.80
2018-10-02T08:53:59.111Z,72.20
2018-10-02T08:56:30.788Z,71.80
2018-10-02T08:59:01.150Z,71.80
2018-10-02T09:01:33.930Z,71.50
2018-10-02T09:04:03.433Z,71.50
2018-10-02T09:06:33.105Z,72.00
2018-10-02T09:09:02.960Z,72.30
2018-10-02T09:11:32.239Z,72.20
2018-10-02T09:14:01.882Z,72.20
2018-10-02T09:16:31.489Z,73.00
2018-10-02T09:19:01.219Z,74.40
2018-10-02T09:21:32.386Z,74.80
2018-10-02T09:24:01.938Z,74.50
2018-10-02T09:26:31.173Z,74.70
2018-10-02T09:29:01.294Z,73.90
2018-10-02T09:31:36.576Z,73.40
2018-10-02T09:34:15.461Z,72.90
2018-10-02T09:36:49.440Z,72.40
2018-10-02T09:39:23.798Z,72.40
2018-10-02T09:41:59.390Z,72.10
2018-10-02T09:44:29.710Z,71.60
2018-10-02T09:46:59.149Z,71.50
2018-10-02T09:49:28.798Z,71.20
2018-10-02T09:51:59.551Z,71.10
2018-10-02T09:54:29.690Z,70.40
2018-10-02T09:56:59.316Z,70.20
2018-10-02T09:59:28.683Z,70.70
2018-10-02T10:02:03.605Z,70.40
2018-10-02T10:04:34.211Z,70.30
2018-10-02T10:07:03.367Z,70.70
2018-10-02T10:09:32.050Z,70.30
2018-10-02T10:12:01.095Z,70.10
2018-10-02T10:14:29.775Z,69.40
2018-10-02T10:16:58.654Z,69.40
2018-10-02T10:19:27.142Z,68.60
2018-10-02T10:21:55.940Z,69.30
2018-10-02T10:24:24.741Z,68.90
2018-10-02T10:26:55.159Z,69.50
2018-10-02T10:29:25.705Z,69.30
2018-10-02T10:31:54.874Z,69.50
2018-10-02T10:34:25.360Z,69.10
2018-10-02T10:36:55.114Z,68.30
2018-10-02T10:39:25.242Z,68.90
2018-10-02T10:41:54.037Z,68.10
2018-10-02T10:44:22.726Z,67.80
2018-10-02T10:46:51.593Z,67.50
2018-10-02T10:49:20.448Z,67.50
2018-10-02T10:51:49.006Z,67.40
2018-10-02T10:54:17.928Z,67.10
2018-10-02T10:56:46.610Z,67.00
2018-10-02T10:59:15.295Z,66.70
2018-10-02T11:01:43.975Z,67.10
2018-10-02T11:04:12.656Z,67.70
2018-10-02T11:06:41.341Z,66.40
2018-10-02T11:09:11.101Z,66.40
2018-10-02T11:11:47.102Z,66.60
2018-10-02T11:14:15.786Z,66.10
2018-10-02T11:16:44.589Z,66.50
2018-10-02T11:19:13.274Z,66.10
2018-10-02T11:21:42.072Z,66.40
2018-10-02T11:24:10.822Z,65.90
2018-10-02T11:26:39.556Z,65.90
2018-10-02T11:29:08.239Z,66.40
2018-10-02T11:31:37.052Z,65.90
2018-10-02T11:34:05.726Z,66.10
2018-10-02T11:36:36.205Z,66.10
2018-10-02T11:39:06.207Z,65.70
2018-10-02T11:41:35.009Z,65.60
2018-10-02T11:44:04.956Z,65.40
2018-10-02T11:46:33.574Z,65.60
2018-10-02T11:49:02.254Z,65.00
2018-10-02T11:51:31.432Z,65.30
2018-10-02T11:54:00.220Z,64.60
2018-10-02T11:56:29.142Z,64.60
2018-10-02T11:58:57.949Z,64.70
2018-10-02T12:01:26.700Z,63.90
2018-10-02T12:03:55.312Z,64.40
2018-10-02T12:06:24.236Z,64.80
2018-10-02T12:08:52.951Z,64.20
2018-10-02T12:11:21.625Z,64.30
2018-10-02T12:13:50.468Z,64.50
2018-10-02T12:16:18.963Z,64.30
2018-10-02T12:18:48.128Z,64.60
2018-10-02T12:21:16.923Z,64.30
2018-10-02T12:23:46.038Z,64.60
2018-10-02T12:26:14.532Z,64.70
2018-10-02T12:28:43.333Z,64.50
2018-10-02T12:31:12.184Z,64.70
2018-10-02T12:33:40.815Z,65.40
2018-10-02T12:36:09.616Z,65.50
2018-10-02T12:38:39.278Z,66.10
2018-10-02T12:41:07.944Z,66.30
2018-10-02T12:43:36.744Z,66.90
2018-10-02T12:46:05.435Z,67.00
2018-10-02T12:48:34.106Z,67.40
2018-10-02T12:51:02.790Z,67.50
2018-10-02T12:53:31.472Z,67.70
2018-10-02T12:56:00.152Z,67.90
2018-10-02T12:58:32.316Z,67.60
2018-10-02T13:01:01.118Z,69.00
2018-10-02T13:03:29.799Z,68.50
2018-10-02T13:05:59.734Z,68.70
2018-10-02T13:08:28.612Z,68.90
2018-10-02T13:10:57.294Z,69.20
2018-10-02T13:13:26.218Z,69.10
2018-10-02T13:15:54.894Z,69.10
2018-10-02T13:18:23.576Z,69.30
2018-10-02T13:20:52.380Z,69.80
2018-10-02T13:23:21.057Z,70.10
2018-10-02T13:25:49.738Z,70.10
2018-10-02T13:28:18.543Z,70.00
2018-10-02T13:30:47.223Z,69.90
2018-10-02T13:33:15.905Z,69.80
2018-10-02T13:35:44.708Z,70.10
2018-10-02T13:38:13.464Z,70.30
2018-10-02T13:40:42.313Z,70.20
2018-10-02T13:43:11.957Z,70.20
2018-10-02T13:45:40.645Z,70.50
2018-10-02T13:48:09.319Z,70.40
2018-10-02T13:50:38.136Z,70.60
2018-10-02T13:53:06.803Z,70.80
2018-10-02T13:55:35.485Z,71.10
2018-10-02T13:58:04.292Z,71.30
2018-10-02T14:00:32.969Z,71.20
2018-10-02T14:03:02.013Z,71.10
2018-10-02T14:05:30.697Z,71.50
2018-10-02T14:07:59.376Z,71.60
2018-10-02T14:10:28.057Z,71.60
2018-10-02T14:12:56.859Z,71.60
2018-10-02T14:15:25.621Z,71.70
2018-10-02T14:17:55.064Z,71.90
2018-10-02T14:20:23.989Z,72.30
2018-10-02T14:22:52.668Z,72.50
2018-10-02T14:25:21.232Z,72.60
2018-10-02T14:27:50.034Z,72.80
2018-10-02T14:30:19.555Z,72.70
2018-10-02T14:32:48.240Z,72.80
2018-10-02T14:35:17.523Z,72.90
2018-10-02T14:37:46.565Z,73.00
2018-10-02T14:40:15.484Z,73.10
2018-10-02T14:42:44.526Z,72.90
2018-10-02T14:46:16.089Z,73.00
2018-10-02T14:48:44.891Z,73.20
2018-10-02T14:51:14.893Z,73.30
2018-10-02T14:53:44.175Z,73.60
2018-10-02T14:56:13.698Z,73.20
2018-10-02T14:58:42.379Z,73.80
2018-10-02T15:01:11.062Z,73.60
2018-10-02T15:03:40.344Z,73.60
2018-10-02T15:06:08.906Z,73.60
2018-10-02T15:08:37.588Z,73.60
2018-10-02T15:11:06.510Z,73.50
2018-10-02T15:13:36.513Z,73.60
2018-10-02T15:16:05.194Z,73.60
2018-10-02T15:18:34.238Z,73.30
2018-10-02T15:21:02.918Z,73.30
2018-10-02T15:23:31.601Z,74.10
2018-10-02T15:26:00.403Z,73.30
2018-10-02T15:28:29.570Z,73.30
2018-10-02T15:30:58.246Z,73.30
2018-10-02T15:33:27.654Z,73.40
2018-10-02T15:35:57.891Z,73.30
2018-10-02T15:38:26.586Z,73.30
2018-10-02T15:40:55.376Z,73.30
2018-10-02T15:43:25.138Z,73.40
2018-10-02T15:45:54.303Z,73.40
2018-10-02T15:48:23.101Z,73.80
2018-10-02T15:50:52.766Z,73.90
2018-10-02T15:53:23.347Z,74.10
2018-10-02T15:55:52.032Z,74.30
2018-10-02T15:58:21.311Z,74.90
2018-10-02T16:00:50.113Z,75.20
2018-10-02T16:03:19.424Z,75.60
2018-10-02T16:05:48.921Z,76.10
2018-10-02T16:08:19.640Z,76.30
2018-10-02T16:10:48.803Z,76.30
2018-10-02T16:13:19.165Z,76.50
2018-10-02T16:15:48.206Z,76.60
2018-10-02T16:18:16.922Z,76.70
2018-10-02T16:20:45.570Z,76.80
2018-10-02T16:23:15.332Z,76.90
2018-10-02T16:25:44.016Z,77.00
2018-10-02T16:28:14.619Z,77.00
2018-10-02T16:30:43.423Z,76.90
2018-10-02T16:33:12.101Z,77.00
2018-10-02T16:35:41.505Z,77.10
2018-10-02T16:38:10.785Z,77.30
2018-10-02T16:40:40.341Z,77.40
2018-10-02T16:43:09.110Z,77.50
2018-10-02T16:45:42.231Z,77.60
2018-10-02T16:48:17.153Z,77.60
2018-10-02T16:50:47.399Z,77.60
2018-10-02T16:53:20.518Z,77.70
2018-10-02T16:55:49.080Z,77.40
2018-10-02T16:58:17.763Z,77.30
2018-10-02T17:00:47.525Z,77.10
2018-10-02T17:03:17.543Z,76.90
2018-10-02T17:05:46.209Z,77.00
2018-10-02T17:08:15.011Z,77.10
2018-10-02T17:10:44.293Z,77.40
2018-10-02T17:13:15.735Z,78.10
2018-10-02T17:15:44.297Z,78.20
2018-10-02T17:18:15.020Z,78.70
2018-10-02T17:20:48.270Z,78.80
2018-10-02T17:23:22.823Z,78.80
2018-10-02T17:25:51.625Z,78.80
2018-10-02T17:28:24.748Z,78.80
2018-10-02T17:30:54.511Z,79.00
2018-10-02T17:33:26.313Z,79.00
2018-10-02T17:36:00.394Z,79.10
2018-10-02T17:38:33.637Z,79.20
2018-10-02T17:41:03.519Z,79.40
2018-10-02T17:43:52.364Z,79.40
2018-10-02T17:46:26.683Z,79.50
2018-10-02T17:48:57.187Z,79.70
2018-10-02T17:51:31.146Z,79.80
2018-10-02T17:55:04.455Z,79.70
2018-10-02T17:57:36.263Z,79.80
2018-10-02T18:00:09.655Z,80.00
2018-10-02T18:02:40.879Z,80.10
2018-10-02T18:05:13.861Z,80.20
2018-10-02T18:07:45.670Z,80.30
2018-10-02T18:10:34.524Z,80.30
2018-10-02T18:13:13.999Z,80.40
2018-10-02T18:15:57.082Z,80.50
2018-10-02T18:18:37.652Z,80.50
2018-10-02T18:21:12.609Z,80.70
2018-10-02T18:23:42.801Z,80.90
2018-10-02T18:26:18.292Z,80.90
2018-10-02T18:28:51.280Z,81.10
2018-10-02T18:31:19.974Z,81.10
2018-10-02T18:33:48.162Z,81.20
2018-10-02T18:36:31.340Z,81.40
2018-10-02T18:39:02.983Z,81.40
2018-10-02T18:41:31.966Z,81.50
2018-10-02T18:44:09.404Z,81.60
2018-10-02T18:47:00.834Z,81.60
2018-10-02T18:49:41.123Z,81.50
2018-10-02T18:52:11.886Z,81.60
2018-10-02T18:54:42.049Z,81.60
2018-10-02T18:57:11.910Z,81.90
2018-10-02T18:59:45.432Z,81.90
2018-10-02T19:02:25.287Z,82.20
2018-10-02T19:04:55.637Z,82.20
2018-10-02T19:07:24.909Z,82.30
2018-10-02T19:09:57.019Z,82.30
2018-10-02T19:12:26.554Z,82.40
2018-10-02T19:15:00.063Z,82.50
2018-10-02T19:17:30.617Z,82.40
2018-10-02T19:20:08.269Z,82.40
2018-10-02T19:22:38.948Z,82.40
2018-10-02T19:25:16.704Z,82.40
2018-10-02T19:27:47.663Z,83.20
2018-10-02T19:30:24.276Z,82.50
2018-10-02T19:32:56.160Z,82.40
2018-10-02T19:35:36.265Z,82.60
2018-10-02T19:38:13.991Z,82.50
2018-10-02T19:40:46.674Z,82.60
2018-10-02T19:43:22.153Z,82.50
2018-10-02T19:47:04.245Z,82.50
2018-10-02T19:49:41.790Z,82.60
2018-10-02T19:52:18.675Z,82.80
2018-10-02T19:54:54.583Z,83.00
2018-10-02T19:57:25.778Z,83.00
2018-10-02T19:59:59.028Z,83.10
2018-10-02T20:02:30.490Z,83.20
2018-10-02T20:05:01.891Z,83.20
2018-10-02T20:07:33.202Z,83.20
2018-10-02T20:10:04.043Z,83.50
2018-10-02T20:12:36.433Z,84.20
2018-10-02T20:15:07.840Z,83.50
2018-10-02T20:17:37.342Z,83.60
2018-10-02T20:20:07.863Z,83.60
2018-10-02T20:22:37.025Z,83.70
2018-10-02T20:25:06.142Z,83.60
2018-10-02T20:27:39.096Z,83.30
2018-10-02T20:30:09.778Z,83.40
2018-10-02T20:32:40.466Z,83.10
2018-10-02T20:35:11.569Z,83.10
2018-10-02T20:37:44.353Z,83.80
2018-10-02T20:40:14.153Z,83.00
2018-10-02T20:42:45.502Z,83.00
2018-10-02T20:45:15.508Z,82.80
2018-10-02T20:47:45.325Z,83.70
2018-10-02T20:50:23.598Z,82.80
2018-10-02T20:52:53.011Z,83.00
2018-10-02T20:55:23.290Z,83.00
2018-10-02T20:57:52.020Z,83.00
2018-10-02T21:00:23.159Z,83.20
2018-10-02T21:02:52.346Z,83.00
2018-10-02T21:05:21.983Z,83.00
2018-10-02T21:07:51.662Z,82.80
2018-10-02T21:10:22.711Z,82.60
2018-10-02T21:12:50.776Z,82.40
2018-10-02T21:15:19.549Z,82.40
2018-10-02T21:17:47.547Z,82.20
2018-10-02T21:20:16.223Z,82.10
2018-10-02T21:22:44.306Z,82.20
2018-10-02T21:25:13.008Z,82.20
2018-10-02T21:27:44.880Z,82.30
2018-10-02T21:30:15.232Z,82.30
2018-10-02T21:32:43.292Z,82.40
2018-10-02T21:35:11.372Z,82.40
2018-10-02T21:37:40.719Z,82.30
2018-10-02T21:40:11.542Z,82.40
2018-10-02T21:42:40.058Z,82.30
2018-10-02T21:45:09.392Z,82.30
2018-10-02T21:47:38.340Z,82.30
2018-10-02T21:50:08.663Z,82.20
2018-10-02T21:52:44.613Z,82.30
2018-10-02T21:55:13.246Z,82.40
2018-10-02T21:57:41.358Z,82.50
2018-10-02T22:00:10.275Z,82.70
2018-10-02T22:02:38.515Z,82.60
2018-10-02T22:05:06.782Z,82.40
2018-10-02T22:07:35.625Z,82.10
2018-10-02T22:10:03.721Z,81.80
2018-10-02T22:12:32.529Z,81.50
2018-10-02T22:15:01.661Z,81.20
2018-10-02T22:17:35.049Z,80.70
2018-10-02T22:20:04.016Z,80.70
2018-10-02T22:22:32.624Z,80.80
2018-10-02T22:25:01.307Z,81.60
2018-10-02T22:27:30.237Z,80.90
2018-10-02T22:29:58.888Z,80.90
2018-10-02T22:32:27.573Z,80.80
2018-10-02T22:34:56.258Z,80.80
2018-10-02T22:37:24.953Z,80.70
2018-10-02T22:39:53.782Z,80.90
2018-10-02T22:42:22.289Z,80.80
2018-10-02T22:44:51.198Z,80.80
2018-10-02T22:47:19.857Z,80.70
2018-10-02T22:49:48.550Z,80.80
2018-10-02T22:52:17.251Z,80.50
2018-10-02T22:54:46.336Z,80.50
2018-10-02T22:57:15.252Z,80.50
2018-10-02T22:59:44.110Z,80.40
2018-10-02T23:02:12.808Z,80.40
2018-10-02T23:04:41.496Z,80.30
2018-10-02T23:07:10.168Z,80.20
2018-10-02T23:09:38.250Z,80.10
2018-10-02T23:12:06.700Z,80.10
2018-10-02T23:14:34.762Z,80.10
2018-10-02T23:17:02.835Z,80.10
2018-10-02T23:19:30.918Z,80.10
2018-10-02T23:21:58.986Z,79.90
2018-10-02T23:24:27.052Z,79.80
2018-10-02T23:26:55.132Z,79.90
2018-10-02T23:29:23.196Z,79.80
2018-10-02T23:31:52.101Z,79.80
2018-10-02T23:34:21.008Z,79.70
2018-10-02T23:36:49.109Z,79.60
2018-10-02T23:39:17.187Z,79.60
2018-10-02T23:41:45.265Z,79.70
2018-10-02T23:44:13.317Z,79.50
2018-10-02T23:46:42.154Z,79.50
2018-10-02T23:49:10.854Z,79.60
2018-10-02T23:51:39.536Z,79.60
2018-10-02T23:54:07.732Z,80.90
2018-10-02T23:56:35.902Z,80.40
2018-10-02T23:59:03.985Z,80.80
